createdAt,value
2019-03-23T00:01:56.379Z,6.33
2019-03-23T00:04:25.402Z,5.57
2019-03-23T00:06:53.239Z,5.80
2019-03-23T00:09:20.804Z,8.20
2019-03-23T00:11:48.477Z,7.63
2019-03-23T00:14:18.364Z,5.40
2019-03-23T00:16:45.927Z,13.10
2019-03-23T00:19:13.231Z,10.40
2019-03-23T00:21:40.485Z,5.97
2019-03-23T00:24:07.787Z,6.70
2019-03-23T00:26:35.059Z,9.00
2019-03-23T00:29:02.509Z,7.27
2019-03-23T00:31:29.955Z,6.30
2019-03-23T00:33:57.238Z,6.00
2019-03-23T00:36:24.479Z,5.63
2019-03-23T00:38:51.933Z,5.33
2019-03-23T00:41:19.191Z,6.70
2019-03-23T00:43:46.899Z,6.43
2019-03-23T00:46:14.309Z,6.37
2019-03-23T00:48:42.002Z,6.50
2019-03-23T00:51:09.294Z,6.23
2019-03-23T00:53:36.558Z,5.97
2019-03-23T00:56:03.875Z,5.40
2019-03-23T00:58:31.131Z,9.07
2019-03-23T01:00:58.516Z,5.83
2019-03-23T01:03:27.855Z,11.23
2019-03-23T01:05:55.123Z,5.90
2019-03-23T01:08:22.673Z,7.23
2019-03-23T01:10:50.052Z,5.40
2019-03-23T01:13:17.570Z,6.00
2019-03-23T01:15:48.224Z,8.00
2019-03-23T01:18:16.440Z,6.17
2019-03-23T01:20:49.579Z,5.77
2019-03-23T01:23:15.431Z,8.53
2019-03-23T01:25:42.728Z,7.90
2019-03-23T01:28:10.113Z,4.90
2019-03-23T01:30:37.655Z,6.37
2019-03-23T01:33:05.063Z,6.27
2019-03-23T01:35:32.570Z,5.87
2019-03-23T01:37:59.990Z,6.70
2019-03-23T01:40:27.588Z,5.97
2019-03-23T01:42:54.995Z,7.00
2019-03-23T01:45:22.401Z,5.77
2019-03-23T01:47:49.740Z,6.90
2019-03-23T01:50:17.393Z,7.13
2019-03-23T01:52:44.706Z,5.30
2019-03-23T01:55:13.973Z,5.50
2019-03-23T01:57:42.417Z,10.70
2019-03-23T02:00:09.783Z,8.67
2019-03-23T02:02:37.049Z,8.93
2019-03-23T02:05:05.368Z,7.10
2019-03-23T02:07:32.771Z,11.73
2019-03-23T02:10:00.037Z,5.80
2019-03-23T02:12:27.317Z,6.20
2019-03-23T02:14:54.572Z,6.43
2019-03-23T02:17:22.182Z,6.20
2019-03-23T02:19:50.074Z,6.10
2019-03-23T02:22:17.457Z,6.47
2019-03-23T02:24:47.093Z,6.30
2019-03-23T02:27:14.376Z,8.00
2019-03-23T02:29:42.054Z,6.77
2019-03-23T02:32:09.737Z,6.13
2019-03-23T02:34:36.983Z,16.97
2019-03-23T02:37:04.285Z,5.60
2019-03-23T02:39:31.815Z,6.07
2019-03-23T02:41:59.219Z,6.50
2019-03-23T02:44:26.718Z,6.03
2019-03-23T02:46:53.978Z,6.07
2019-03-23T02:49:21.325Z,8.10
2019-03-23T02:51:48.636Z,6.03
2019-03-23T02:54:17.450Z,11.70
2019-03-23T02:56:44.825Z,7.90
2019-03-23T02:59:12.307Z,7.33
2019-03-23T03:01:39.553Z,12.90
2019-03-23T03:04:06.928Z,7.40
2019-03-23T03:06:34.381Z,5.77
2019-03-23T03:09:01.702Z,6.10
2019-03-23T03:11:29.148Z,5.93
2019-03-23T03:13:56.427Z,5.80
2019-03-23T03:16:27.491Z,9.43
2019-03-23T03:18:54.993Z,7.50
2019-03-23T03:21:23.581Z,7.83
2019-03-23T03:23:50.972Z,6.70
2019-03-23T03:26:18.593Z,6.43
2019-03-23T03:28:45.918Z,5.83
2019-03-23T03:31:13.197Z,11.60
2019-03-23T03:33:40.519Z,11.07
2019-03-23T03:36:07.771Z,5.90
2019-03-23T03:38:35.668Z,5.90
2019-03-23T03:41:02.947Z,5.83
2019-03-23T03:43:30.239Z,6.33
2019-03-23T03:46:00.013Z,9.00
2019-03-23T03:48:27.243Z,6.00
2019-03-23T03:50:54.537Z,11.00
2019-03-23T03:53:24.745Z,5.83
2019-03-23T03:55:52.096Z,5.70
2019-03-23T03:58:22.306Z,9.10
2019-03-23T04:00:49.715Z,6.80
2019-03-23T04:03:17.090Z,8.90
2019-03-23T04:05:46.626Z,8.70
2019-03-23T04:08:15.622Z,15.80
2019-03-23T04:10:42.914Z,5.47
2019-03-23T04:13:10.158Z,7.47
2019-03-23T04:15:37.688Z,8.50
2019-03-23T04:18:04.965Z,5.47
2019-03-23T04:20:32.246Z,8.63
2019-03-23T04:22:59.634Z,6.27
2019-03-23T04:25:29.885Z,5.97
2019-03-23T04:27:57.159Z,7.03
2019-03-23T04:30:24.552Z,6.50
2019-03-23T04:32:51.810Z,14.83
2019-03-23T04:35:19.083Z,7.20
2019-03-23T04:37:46.469Z,6.40
2019-03-23T04:40:14.197Z,6.93
2019-03-23T04:42:41.521Z,6.10
2019-03-23T04:45:08.890Z,8.43
2019-03-23T04:47:37.163Z,6.97
2019-03-23T04:50:04.909Z,6.90
2019-03-23T04:52:32.261Z,10.53
2019-03-23T04:54:59.670Z,5.73
2019-03-23T04:57:26.962Z,10.50
2019-03-23T04:59:54.263Z,9.03
2019-03-23T05:02:21.655Z,6.60
2019-03-23T05:04:48.943Z,6.43
2019-03-23T05:07:16.598Z,6.20
2019-03-23T05:09:43.888Z,8.07
2019-03-23T05:12:11.494Z,7.90
2019-03-23T05:14:38.784Z,7.20
2019-03-23T05:17:06.040Z,9.33
2019-03-23T05:19:33.672Z,6.77
2019-03-23T05:22:08.140Z,5.77
2019-03-23T05:24:35.550Z,12.33
2019-03-23T05:27:02.928Z,6.67
2019-03-23T05:29:30.236Z,9.17
2019-03-23T05:31:57.612Z,8.20
2019-03-23T05:34:24.905Z,6.70
2019-03-23T05:36:52.180Z,7.47
2019-03-23T05:39:19.542Z,10.03
2019-03-23T05:41:46.849Z,10.23
2019-03-23T05:44:14.172Z,7.03
2019-03-23T05:46:42.776Z,7.67
2019-03-23T05:49:10.170Z,13.80
2019-03-23T05:51:37.603Z,10.10
2019-03-23T05:54:04.904Z,8.33
2019-03-23T05:56:32.203Z,6.90
2019-03-23T05:58:59.696Z,11.17
2019-03-23T06:01:27.152Z,6.37
2019-03-23T06:03:54.450Z,8.70
2019-03-23T06:06:22.132Z,6.30
2019-03-23T06:08:54.908Z,9.37
2019-03-23T06:11:18.988Z,7.13
2019-03-23T06:13:47.443Z,7.60
2019-03-23T06:16:14.842Z,8.03
2019-03-23T06:18:42.136Z,7.43
2019-03-23T06:21:09.430Z,22.33
2019-03-23T06:23:36.776Z,8.00
2019-03-23T06:26:06.418Z,7.97
2019-03-23T06:28:34.460Z,9.17
2019-03-23T06:31:01.736Z,11.50
2019-03-23T06:33:29.002Z,12.20
2019-03-23T06:35:56.323Z,9.77
2019-03-23T06:38:23.640Z,6.90
2019-03-23T06:40:50.948Z,8.07
2019-03-23T06:43:18.250Z,8.67
2019-03-23T06:45:45.717Z,10.60
2019-03-23T06:48:13.014Z,10.93
2019-03-23T06:50:40.770Z,9.90
2019-03-23T06:53:08.070Z,7.83
2019-03-23T06:55:35.436Z,7.40
2019-03-23T06:58:02.842Z,12.10
2019-03-23T07:00:30.354Z,9.30
2019-03-23T07:02:57.650Z,10.80
2019-03-23T07:05:24.952Z,9.03
2019-03-23T07:07:52.224Z,9.50
2019-03-23T07:10:19.645Z,11.43
2019-03-23T07:12:46.914Z,10.20
2019-03-23T07:15:20.010Z,11.20
2019-03-23T07:17:44.167Z,11.63
2019-03-23T07:20:11.577Z,9.40
2019-03-23T07:22:38.991Z,12.77
2019-03-23T07:25:08.454Z,14.47
2019-03-23T07:27:36.574Z,11.00
2019-03-23T07:30:05.799Z,9.93
2019-03-23T07:32:33.050Z,19.00
2019-03-23T07:35:00.437Z,9.53
2019-03-23T07:37:27.716Z,17.27
2019-03-23T07:39:55.091Z,9.80
2019-03-23T07:42:22.387Z,10.80
2019-03-23T07:44:49.635Z,14.00
2019-03-23T07:47:17.000Z,12.60
2019-03-23T07:49:44.632Z,10.60
2019-03-23T07:52:11.909Z,12.10
2019-03-23T07:54:39.215Z,15.07
2019-03-23T07:57:06.509Z,14.17
2019-03-23T07:59:33.814Z,13.00
2019-03-23T08:02:02.032Z,16.60
2019-03-23T08:04:29.315Z,15.30
2019-03-23T08:06:56.673Z,13.70
2019-03-23T08:09:23.993Z,16.60
2019-03-23T08:11:51.389Z,14.43
2019-03-23T08:14:19.892Z,17.13
2019-03-23T08:16:47.415Z,15.87
2019-03-23T08:19:14.854Z,23.63
2019-03-23T08:21:42.125Z,21.20
2019-03-23T08:24:09.461Z,16.30
2019-03-23T08:26:36.827Z,18.80
2019-03-23T08:29:04.244Z,16.20
2019-03-23T08:31:31.638Z,18.13
2019-03-23T08:34:00.389Z,19.60
2019-03-23T08:36:27.775Z,18.87
2019-03-23T08:38:56.138Z,21.23
2019-03-23T08:41:23.779Z,23.03
2019-03-23T08:43:52.713Z,21.63
2019-03-23T08:46:22.590Z,22.30
2019-03-23T08:48:50.293Z,24.63
2019-03-23T08:51:18.528Z,25.33
2019-03-23T08:53:45.989Z,24.43
2019-03-23T08:56:13.687Z,28.37
2019-03-23T08:58:39.681Z,30.60
2019-03-23T09:01:06.942Z,28.67
2019-03-23T09:03:34.217Z,27.10
2019-03-23T09:06:01.655Z,25.33
2019-03-23T09:08:29.497Z,28.70
2019-03-23T09:10:56.768Z,34.93
2019-03-23T09:13:24.168Z,26.83
2019-03-23T09:15:51.693Z,27.30
2019-03-23T09:18:23.143Z,29.27
2019-03-23T09:20:52.917Z,27.57
2019-03-23T09:23:22.755Z,38.10
2019-03-23T09:25:50.113Z,33.43
2019-03-23T09:28:18.627Z,55.57
2019-03-23T09:30:47.999Z,37.53
2019-03-23T09:33:15.442Z,36.83
2019-03-23T09:35:42.957Z,37.03
2019-03-23T09:38:10.784Z,34.83
2019-03-23T09:40:40.341Z,35.47
2019-03-23T09:43:07.643Z,36.30
2019-03-23T09:45:34.933Z,34.83
2019-03-23T09:48:02.278Z,35.43
2019-03-23T09:50:29.607Z,32.50
2019-03-23T09:53:01.073Z,32.70
2019-03-23T09:55:28.796Z,35.53
2019-03-23T09:57:56.305Z,40.70
2019-03-23T10:00:23.766Z,35.93
2019-03-23T10:02:51.289Z,36.83
2019-03-23T10:05:18.547Z,36.00
2019-03-23T10:07:45.836Z,40.07
2019-03-23T10:10:21.340Z,35.60
2019-03-23T10:12:44.607Z,39.13
2019-03-23T10:15:12.119Z,39.80
2019-03-23T10:17:39.805Z,33.97
2019-03-23T10:20:07.448Z,38.07
2019-03-23T10:22:35.045Z,37.73
2019-03-23T10:25:04.719Z,47.50
2019-03-23T10:27:32.507Z,39.60
2019-03-23T10:29:59.901Z,39.60
2019-03-23T10:32:27.646Z,42.20
2019-03-23T10:34:57.121Z,40.47
2019-03-23T10:37:26.114Z,47.17
2019-03-23T10:39:53.676Z,43.30
2019-03-23T10:42:21.029Z,40.80
2019-03-23T10:44:48.593Z,49.83
2019-03-23T10:47:21.056Z,37.27
2019-03-23T10:49:50.999Z,36.63
2019-03-23T10:52:18.976Z,38.80
2019-03-23T10:54:57.376Z,40.03
2019-03-23T10:57:25.228Z,39.40
2019-03-23T10:59:52.588Z,39.63
2019-03-23T11:02:19.896Z,40.00
2019-03-23T11:04:47.297Z,38.23
2019-03-23T11:07:15.500Z,44.60
2019-03-23T11:09:43.289Z,42.90
2019-03-23T11:12:17.109Z,41.60
2019-03-23T11:14:47.912Z,44.57
2019-03-23T11:17:16.245Z,44.80
2019-03-23T11:19:46.661Z,57.47
2019-03-23T11:22:25.125Z,36.57
2019-03-23T11:24:55.373Z,34.53
2019-03-23T11:27:23.013Z,38.13
2019-03-23T11:29:52.985Z,42.47
2019-03-23T11:32:27.653Z,41.13
2019-03-23T11:35:00.903Z,40.40
2019-03-23T11:37:31.341Z,40.53
2019-03-23T11:40:03.575Z,37.33
2019-03-23T11:42:31.501Z,38.07
2019-03-23T11:44:59.467Z,39.33
2019-03-23T11:47:31.283Z,42.67
2019-03-23T11:50:07.305Z,39.20
2019-03-23T11:52:39.841Z,39.60
2019-03-23T11:55:12.412Z,43.47
2019-03-23T11:57:44.469Z,40.33
2019-03-23T12:00:17.072Z,42.33
2019-03-23T12:02:44.691Z,42.10
2019-03-23T12:05:12.076Z,41.10
2019-03-23T12:07:42.613Z,39.07
2019-03-23T12:10:20.477Z,34.63
2019-03-23T12:12:54.899Z,35.23
2019-03-23T12:15:24.899Z,33.70
2019-03-23T12:17:52.594Z,38.63
2019-03-23T12:20:22.863Z,41.27
2019-03-23T12:22:57.933Z,38.83
2019-03-23T12:25:28.972Z,48.03
2019-03-23T12:28:09.100Z,38.13
2019-03-23T12:30:39.066Z,34.97
2019-03-23T12:33:10.209Z,37.43
2019-03-23T12:35:38.878Z,31.03
2019-03-23T12:38:06.241Z,35.17
2019-03-23T12:40:33.635Z,34.57
2019-03-23T12:43:04.273Z,41.80
2019-03-23T12:45:32.861Z,37.60
2019-03-23T12:48:06.593Z,39.97
2019-03-23T12:50:36.486Z,40.40
2019-03-23T12:53:06.949Z,36.00
2019-03-23T12:55:43.063Z,33.57
2019-03-23T12:58:22.854Z,32.33
2019-03-23T13:01:01.893Z,37.63
2019-03-23T13:03:39.350Z,35.43
2019-03-23T13:06:17.071Z,40.30
2019-03-23T13:08:47.379Z,32.23
2019-03-23T13:11:23.286Z,37.70
2019-03-23T13:13:45.335Z,36.40
2019-03-23T13:16:12.573Z,35.33
2019-03-23T13:18:39.874Z,34.93
2019-03-23T13:21:07.811Z,35.93
2019-03-23T13:23:35.367Z,34.03
2019-03-23T13:26:03.451Z,34.43
2019-03-23T13:28:30.778Z,34.47
2019-03-23T13:30:59.997Z,39.30
2019-03-23T13:33:27.274Z,33.80
2019-03-23T13:35:54.638Z,40.03
2019-03-23T13:38:21.995Z,34.73
2019-03-23T13:40:49.297Z,29.10
2019-03-23T13:43:16.550Z,32.23
2019-03-23T13:45:43.940Z,33.13
2019-03-23T13:48:11.432Z,36.97
2019-03-23T13:50:38.708Z,36.40
2019-03-23T13:53:06.018Z,35.43
2019-03-23T13:55:33.730Z,31.40
2019-03-23T13:58:08.613Z,30.27
2019-03-23T14:00:35.972Z,37.20
2019-03-23T14:03:03.641Z,32.50
2019-03-23T14:05:30.897Z,29.43
2019-03-23T14:07:58.276Z,32.83
2019-03-23T14:10:28.012Z,29.40
2019-03-23T14:12:55.431Z,34.80
2019-03-23T14:15:23.494Z,32.97
2019-03-23T14:17:50.780Z,30.80
2019-03-23T14:20:20.460Z,32.83
2019-03-23T14:22:47.635Z,33.53
2019-03-23T14:25:14.884Z,34.93
2019-03-23T14:27:42.175Z,32.97
2019-03-23T14:30:09.475Z,31.87
2019-03-23T14:32:36.753Z,35.30
2019-03-23T14:35:04.324Z,38.50
2019-03-23T14:37:31.742Z,35.97
2019-03-23T14:39:58.997Z,31.17
2019-03-23T14:42:26.969Z,35.90
2019-03-23T14:44:57.519Z,36.73
2019-03-23T14:47:24.797Z,36.93
2019-03-23T14:49:52.134Z,36.33
2019-03-23T14:52:19.707Z,37.53
2019-03-23T14:54:46.979Z,38.17
2019-03-23T14:57:14.991Z,37.40
2019-03-23T14:59:42.756Z,34.20
2019-03-23T15:02:10.408Z,33.00
2019-03-23T15:04:37.897Z,37.40
2019-03-23T15:07:05.378Z,36.60
2019-03-23T15:09:33.132Z,36.27
2019-03-23T15:12:02.818Z,37.30
2019-03-23T15:14:30.557Z,36.17
2019-03-23T15:17:00.100Z,42.57
2019-03-23T15:19:27.686Z,37.37
2019-03-23T15:21:55.161Z,38.77
2019-03-23T15:24:22.982Z,35.57
2019-03-23T15:26:53.179Z,33.13
2019-03-23T15:29:22.572Z,38.63
2019-03-23T15:31:50.074Z,40.67
2019-03-23T15:34:17.866Z,45.40
2019-03-23T15:36:45.135Z,52.63
2019-03-23T15:39:12.392Z,56.03
2019-03-23T15:41:39.930Z,58.37
2019-03-23T15:44:07.201Z,55.87
2019-03-23T15:46:34.494Z,61.30
2019-03-23T15:49:01.753Z,63.70
2019-03-23T15:51:29.120Z,54.23
2019-03-23T15:53:58.522Z,52.37
2019-03-23T15:56:25.869Z,56.90
2019-03-23T15:58:53.145Z,57.37
2019-03-23T16:01:23.308Z,56.83
2019-03-23T16:03:50.621Z,57.53
2019-03-23T16:06:18.158Z,52.73
2019-03-23T16:08:45.547Z,63.83
2019-03-23T16:11:12.804Z,59.73
2019-03-23T16:13:40.604Z,51.77
2019-03-23T16:16:08.018Z,56.70
2019-03-23T16:18:35.422Z,51.97
2019-03-23T16:21:02.804Z,53.10
2019-03-23T16:23:30.450Z,51.47
2019-03-23T16:25:57.771Z,54.90
2019-03-23T16:28:25.366Z,52.90
2019-03-23T16:30:52.716Z,46.90
2019-03-23T16:33:21.924Z,47.90
2019-03-23T16:35:49.583Z,52.23
2019-03-23T16:38:16.933Z,54.93
2019-03-23T16:40:44.785Z,46.23
2019-03-23T16:43:12.156Z,45.03
2019-03-23T16:45:39.929Z,45.17
2019-03-23T16:48:07.230Z,48.20
2019-03-23T16:50:34.708Z,52.67
2019-03-23T16:53:01.990Z,44.23
2019-03-23T16:55:29.236Z,49.17
2019-03-23T16:57:56.492Z,44.07
2019-03-23T17:00:34.212Z,42.50
2019-03-23T17:03:02.504Z,48.20
2019-03-23T17:05:30.488Z,46.13
2019-03-23T17:07:57.776Z,50.10
2019-03-23T17:10:25.460Z,56.40
2019-03-23T17:12:55.527Z,48.20
2019-03-23T17:15:21.914Z,46.63
2019-03-23T17:17:49.163Z,47.27
2019-03-23T17:20:16.471Z,55.20
2019-03-23T17:22:43.786Z,54.60
2019-03-23T17:25:11.035Z,53.77
2019-03-23T17:27:39.578Z,54.30
2019-03-23T17:30:09.557Z,51.03
2019-03-23T17:32:39.646Z,58.60
2019-03-23T17:35:07.027Z,54.70
2019-03-23T17:37:34.324Z,48.63
2019-03-23T17:40:01.650Z,56.53
2019-03-23T17:42:28.946Z,64.17
2019-03-23T17:44:56.224Z,56.93
2019-03-23T17:47:23.490Z,54.07
2019-03-23T17:49:50.762Z,54.90
2019-03-23T17:52:18.046Z,55.67
2019-03-23T17:54:45.290Z,59.27
2019-03-23T17:57:12.549Z,55.47
2019-03-23T17:59:39.868Z,55.93
2019-03-23T18:02:07.406Z,63.13
2019-03-23T18:04:36.761Z,58.33
2019-03-23T18:07:05.379Z,60.37
2019-03-23T18:09:33.089Z,73.33
2019-03-23T18:12:03.806Z,58.33
2019-03-23T18:14:31.542Z,57.93
2019-03-23T18:16:58.788Z,58.03
2019-03-23T18:19:26.774Z,59.10
2019-03-23T18:21:54.582Z,60.63
2019-03-23T18:24:22.014Z,58.13
2019-03-23T18:26:49.619Z,59.93
2019-03-23T18:29:16.866Z,61.13
2019-03-23T18:31:44.452Z,60.93
2019-03-23T18:34:12.066Z,61.93
2019-03-23T18:36:39.539Z,62.30
2019-03-23T18:39:07.376Z,64.80
2019-03-23T18:41:38.038Z,61.03
2019-03-23T18:44:15.609Z,66.93
2019-03-23T18:46:38.816Z,65.97
2019-03-23T18:49:06.026Z,69.63
2019-03-23T18:51:33.467Z,74.57
2019-03-23T18:54:00.742Z,71.53
2019-03-23T18:56:29.385Z,62.97
2019-03-23T18:58:57.116Z,69.57
2019-03-23T19:01:27.589Z,66.17
2019-03-23T19:03:56.448Z,64.50
2019-03-23T19:06:24.257Z,69.47
2019-03-23T19:08:51.548Z,70.53
2019-03-23T19:11:28.633Z,78.30
2019-03-23T19:13:56.091Z,73.30
2019-03-23T19:16:25.069Z,73.00
2019-03-23T19:18:52.516Z,74.50
2019-03-23T19:21:23.497Z,71.77
2019-03-23T19:23:54.173Z,75.30
2019-03-23T19:26:23.104Z,73.23
2019-03-23T19:28:50.540Z,86.23
2019-03-23T19:31:21.052Z,73.63
2019-03-23T19:33:51.142Z,75.63
2019-03-23T19:36:20.548Z,77.20
2019-03-23T19:38:47.858Z,79.77
2019-03-23T19:41:16.319Z,81.03
2019-03-23T19:43:49.786Z,79.80
2019-03-23T19:46:13.994Z,79.57
2019-03-23T19:48:41.244Z,75.73
2019-03-23T19:51:08.517Z,85.00
2019-03-23T19:53:36.800Z,77.37
2019-03-23T19:56:04.830Z,83.90
2019-03-23T19:58:32.213Z,78.10
2019-03-23T20:01:00.496Z,77.27
2019-03-23T20:03:30.329Z,78.80
2019-03-23T20:05:58.001Z,73.33
2019-03-23T20:08:25.732Z,78.00
2019-03-23T20:10:52.978Z,77.77
2019-03-23T20:13:29.840Z,74.93
2019-03-23T20:16:00.115Z,82.87
2019-03-23T20:18:27.568Z,84.63
2019-03-23T20:20:55.724Z,80.33
2019-03-23T20:23:25.021Z,74.87
2019-03-23T20:25:57.934Z,88.80
2019-03-23T20:28:31.088Z,85.23
2019-03-23T20:31:00.088Z,88.97
2019-03-23T20:33:27.486Z,80.07
2019-03-23T20:35:55.587Z,76.30
2019-03-23T20:38:24.293Z,77.90
2019-03-23T20:40:51.935Z,72.13
2019-03-23T20:43:19.493Z,77.53
2019-03-23T20:45:51.909Z,81.00
2019-03-23T20:48:20.235Z,79.97
2019-03-23T20:50:48.025Z,72.67
2019-03-23T20:53:26.847Z,69.80
2019-03-23T20:55:56.445Z,71.60
2019-03-23T20:58:26.257Z,76.97
2019-03-23T21:00:58.768Z,71.53
2019-03-23T21:03:28.944Z,76.60
2019-03-23T21:05:56.403Z,68.80
2019-03-23T21:08:28.749Z,80.50
2019-03-23T21:10:58.289Z,78.30
2019-03-23T21:13:25.627Z,73.40
2019-03-23T21:15:55.505Z,76.30
2019-03-23T21:18:23.674Z,73.60
2019-03-23T21:20:53.567Z,72.47
2019-03-23T21:23:22.747Z,74.83
2019-03-23T21:25:50.088Z,75.37
2019-03-23T21:28:21.865Z,76.77
2019-03-23T21:30:53.887Z,70.27
2019-03-23T21:33:32.106Z,69.90
2019-03-23T21:36:01.710Z,67.13
2019-03-23T21:38:31.539Z,72.43
2019-03-23T21:41:01.728Z,59.93
2019-03-23T21:43:32.797Z,63.00
2019-03-23T21:46:08.940Z,63.87
2019-03-23T21:48:38.739Z,58.77
2019-03-23T21:51:08.406Z,57.73
2019-03-23T21:53:38.911Z,61.60
2019-03-23T21:56:09.658Z,59.67
2019-03-23T21:58:39.334Z,62.60
2019-03-23T22:01:14.187Z,66.30
2019-03-23T22:03:44.221Z,63.27
2019-03-23T22:06:12.676Z,64.87
2019-03-23T22:08:42.363Z,65.63
2019-03-23T22:11:12.597Z,59.53
2019-03-23T22:13:46.129Z,60.47
2019-03-23T22:16:17.433Z,62.00
2019-03-23T22:18:56.912Z,57.20
2019-03-23T22:21:26.945Z,62.27
2019-03-23T22:23:55.607Z,64.67
2019-03-23T22:26:22.999Z,57.33
2019-03-23T22:28:53.479Z,57.90
2019-03-23T22:31:21.259Z,60.13
2019-03-23T22:33:50.231Z,58.00
2019-03-23T22:36:19.737Z,57.53
2019-03-23T22:38:48.823Z,59.60
2019-03-23T22:41:16.893Z,63.43
2019-03-23T22:43:44.180Z,66.30
2019-03-23T22:46:11.933Z,58.67
2019-03-23T22:48:42.346Z,60.53
2019-03-23T22:51:10.851Z,57.07
2019-03-23T22:53:40.622Z,53.93
2019-03-23T22:56:12.640Z,60.23
2019-03-23T22:58:48.527Z,57.67
2019-03-23T23:01:15.811Z,62.00
2019-03-23T23:03:44.807Z,60.53
2019-03-23T23:06:21.956Z,61.30
2019-03-23T23:08:59.197Z,64.07
2019-03-23T23:11:27.087Z,55.50
2019-03-23T23:13:54.528Z,58.40
2019-03-23T23:16:25.854Z,61.43
2019-03-23T23:18:53.235Z,57.70
2019-03-23T23:21:20.498Z,72.27
2019-03-23T23:23:47.837Z,61.70
2019-03-23T23:26:15.300Z,64.57
2019-03-23T23:28:42.734Z,58.90
2019-03-23T23:31:10.601Z,61.63
2019-03-23T23:33:38.044Z,65.00
2019-03-23T23:36:05.327Z,59.50
2019-03-23T23:38:32.656Z,63.17
2019-03-23T23:41:01.432Z,62.60
2019-03-23T23:43:28.919Z,66.20
2019-03-23T23:45:56.234Z,56.10
2019-03-23T23:48:23.550Z,56.50
2019-03-23T23:50:50.929Z,63.27
2019-03-23T23:53:18.788Z,62.50
2019-03-23T23:55:46.616Z,60.27
2019-03-23T23:58:14.105Z,64.00
